sensor_id;sensor_type;location;lat;lon;timestamp;P1;durP1;ratioP1;P2;durP2;ratioP2
23470;SDS011;11908;50.806;4.424;2022-11-30T00:00:18;30.40;;;17.98;;
23470;SDS011;11908;50.806;4.424;2022-11-30T00:02:45;28.13;;;18.25;;
23470;SDS011;11908;50.806;4.424;2022-11-30T00:05:13;32.17;;;18.92;;
23470;SDS011;11908;50.806;4.424;2022-11-30T00:07:39;30.63;;;18.52;;
23470;SDS011;11908;50.806;4.424;2022-11-30T00:10:05;33.03;;;18.45;;
23470;SDS011;11908;50.806;4.424;2022-11-30T00:12:32;33.80;;;18.02;;
23470;SDS011;11908;50.806;4.424;2022-11-30T00:14:58;41.28;;;18.98;;
23470;SDS011;11908;50.806;4.424;2022-11-30T00:17:23;41.80;;;19.70;;
23470;SDS011;11908;50.806;4.424;2022-11-30T00:19:49;33.42;;;19.52;;
23470;SDS011;11908;50.806;4.424;2022-11-30T00:22:15;32.00;;;19.02;;
23470;SDS011;11908;50.806;4.424;2022-11-30T00:24:40;40.40;;;19.83;;
23470;SDS011;11908;50.806;4.424;2022-11-30T00:27:06;35.25;;;19.55;;
23470;SDS011;11908;50.806;4.424;2022-11-30T00:29:31;31.42;;;18.73;;
23470;SDS011;11908;50.806;4.424;2022-11-30T00:31:58;32.75;;;19.85;;
23470;SDS011;11908;50.806;4.424;2022-11-30T00:34:23;31.70;;;19.52;;
23470;SDS011;11908;50.806;4.424;2022-11-30T00:36:49;34.10;;;19.50;;
23470;SDS011;11908;50.806;4.424;2022-11-30T00:39:14;39.40;;;20.20;;
23470;SDS011;11908;50.806;4.424;2022-11-30T00:41:40;37.78;;;19.90;;
23470;SDS011;11908;50.806;4.424;2022-11-30T00:44:06;36.40;;;18.75;;
23470;SDS011;11908;50.806;4.424;2022-11-30T00:46:32;31.80;;;18.60;;
23470;SDS011;11908;50.806;4.424;2022-11-30T00:48:57;35.40;;;19.10;;
23470;SDS011;11908;50.806;4.424;2022-11-30T00:51:23;33.33;;;17.15;;
23470;SDS011;11908;50.806;4.424;2022-11-30T00:53:48;29.17;;;16.13;;
23470;SDS011;11908;50.806;4.424;2022-11-30T00:56:14;26.20;;;16.42;;
23470;SDS011;11908;50.806;4.424;2022-11-30T00:58:40;28.15;;;16.98;;
23470;SDS011;11908;50.806;4.424;2022-11-30T01:01:06;28.67;;;17.38;;
23470;SDS011;11908;50.806;4.424;2022-11-30T01:03:32;31.65;;;17.05;;
23470;SDS011;11908;50.806;4.424;2022-11-30T01:06:02;30.35;;;17.52;;
23470;SDS011;11908;50.806;4.424;2022-11-30T01:08:28;30.27;;;18.05;;
23470;SDS011;11908;50.806;4.424;2022-11-30T01:10:54;35.60;;;18.20;;
23470;SDS011;11908;50.806;4.424;2022-11-30T01:13:21;34.03;;;18.02;;
23470;SDS011;11908;50.806;4.424;2022-11-30T01:15:48;29.45;;;15.82;;
23470;SDS011;11908;50.806;4.424;2022-11-30T01:18:13;29.45;;;16.90;;
23470;SDS011;11908;50.806;4.424;2022-11-30T01:20:40;29.90;;;16.67;;
23470;SDS011;11908;50.806;4.424;2022-11-30T01:23:07;34.28;;;18.65;;
23470;SDS011;11908;50.806;4.424;2022-11-30T01:25:32;34.05;;;19.20;;
23470;SDS011;11908;50.806;4.424;2022-11-30T01:27:58;36.28;;;18.77;;
23470;SDS011;11908;50.806;4.424;2022-11-30T01:30:24;34.55;;;18.10;;
23470;SDS011;11908;50.806;4.424;2022-11-30T01:32:49;37.03;;;18.42;;
23470;SDS011;11908;50.806;4.424;2022-11-30T01:35:15;39.35;;;19.73;;
23470;SDS011;11908;50.806;4.424;2022-11-30T01:37:41;36.15;;;18.38;;
23470;SDS011;11908;50.806;4.424;2022-11-30T01:40:07;40.42;;;19.10;;
23470;SDS011;11908;50.806;4.424;2022-11-30T01:42:34;37.38;;;18.25;;
23470;SDS011;11908;50.806;4.424;2022-11-30T01:45:02;40.20;;;18.30;;
23470;SDS011;11908;50.806;4.424;2022-11-30T01:47:30;37.55;;;17.55;;
23470;SDS011;11908;50.806;4.424;2022-11-30T01:50:15;45.10;;;19.35;;
23470;SDS011;11908;50.806;4.424;2022-11-30T01:52:58;58.25;;;19.75;;
23470;SDS011;11908;50.806;4.424;2022-11-30T01:55:28;46.05;;;18.80;;
23470;SDS011;11908;50.806;4.424;2022-11-30T02:00:38;75.88;;;18.10;;
23470;SDS011;11908;50.806;4.424;2022-11-30T02:03:13;59.20;;;19.48;;
23470;SDS011;11908;50.806;4.424;2022-11-30T02:06:02;62.45;;;18.75;;
23470;SDS011;11908;50.806;4.424;2022-11-30T02:08:27;40.70;;;19.63;;
23470;SDS011;11908;50.806;4.424;2022-11-30T02:10:56;41.60;;;19.17;;
23470;SDS011;11908;50.806;4.424;2022-11-30T02:13:45;38.20;;;18.33;;
23470;SDS011;11908;50.806;4.424;2022-11-30T02:22:05;46.33;;;19.92;;
23470;SDS011;11908;50.806;4.424;2022-11-30T02:27:55;86.60;;;18.60;;
23470;SDS011;11908;50.806;4.424;2022-11-30T02:30:27;66.97;;;17.52;;
23470;SDS011;11908;50.806;4.424;2022-11-30T02:33:02;47.63;;;17.63;;
23470;SDS011;11908;50.806;4.424;2022-11-30T02:35:32;37.53;;;17.23;;
23470;SDS011;11908;50.806;4.424;2022-11-30T02:38:02;39.03;;;16.73;;
23470;SDS011;11908;50.806;4.424;2022-11-30T02:40:29;35.33;;;15.25;;
23470;SDS011;11908;50.806;4.424;2022-11-30T02:42:55;149.50;;;18.98;;
23470;SDS011;11908;50.806;4.424;2022-11-30T02:45:33;67.20;;;17.48;;
23470;SDS011;11908;50.806;4.424;2022-11-30T02:48:20;48.83;;;17.75;;
23470;SDS011;11908;50.806;4.424;2022-11-30T02:50:53;45.22;;;18.60;;
23470;SDS011;11908;50.806;4.424;2022-11-30T02:53:23;86.97;;;19.45;;
23470;SDS011;11908;50.806;4.424;2022-11-30T02:55:49;118.72;;;18.30;;
23470;SDS011;11908;50.806;4.424;2022-11-30T02:58:15;43.50;;;18.23;;
23470;SDS011;11908;50.806;4.424;2022-11-30T03:00:41;59.03;;;17.52;;
23470;SDS011;11908;50.806;4.424;2022-11-30T03:03:07;57.72;;;19.60;;
23470;SDS011;11908;50.806;4.424;2022-11-30T03:05:33;59.40;;;18.67;;
23470;SDS011;11908;50.806;4.424;2022-11-30T03:08:02;41.28;;;19.00;;
23470;SDS011;11908;50.806;4.424;2022-11-30T03:10:27;48.63;;;19.80;;
23470;SDS011;11908;50.806;4.424;2022-11-30T03:12:56;51.25;;;20.33;;
23470;SDS011;11908;50.806;4.424;2022-11-30T03:15:22;73.55;;;18.83;;
23470;SDS011;11908;50.806;4.424;2022-11-30T03:17:48;66.50;;;20.48;;
23470;SDS011;11908;50.806;4.424;2022-11-30T03:20:14;113.05;;;19.63;;
23470;SDS011;11908;50.806;4.424;2022-11-30T03:22:40;83.10;;;20.30;;
23470;SDS011;11908;50.806;4.424;2022-11-30T03:25:05;69.60;;;19.92;;
23470;SDS011;11908;50.806;4.424;2022-11-30T03:27:31;67.93;;;19.25;;
23470;SDS011;11908;50.806;4.424;2022-11-30T03:29:57;79.43;;;20.33;;
23470;SDS011;11908;50.806;4.424;2022-11-30T03:32:23;94.68;;;19.77;;
23470;SDS011;11908;50.806;4.424;2022-11-30T03:34:48;83.25;;;21.02;;
23470;SDS011;11908;50.806;4.424;2022-11-30T03:37:14;77.03;;;18.52;;
23470;SDS011;11908;50.806;4.424;2022-11-30T03:39:39;58.33;;;16.60;;
23470;SDS011;11908;50.806;4.424;2022-11-30T03:42:05;122.75;;;17.80;;
23470;SDS011;11908;50.806;4.424;2022-11-30T03:44:31;48.25;;;17.95;;
23470;SDS011;11908;50.806;4.424;2022-11-30T03:46:56;76.20;;;17.80;;
23470;SDS011;11908;50.806;4.424;2022-11-30T03:49:22;56.20;;;18.33;;
23470;SDS011;11908;50.806;4.424;2022-11-30T03:51:48;85.97;;;18.30;;
23470;SDS011;11908;50.806;4.424;2022-11-30T03:54:14;66.22;;;16.90;;
23470;SDS011;11908;50.806;4.424;2022-11-30T03:56:39;74.45;;;17.05;;
23470;SDS011;11908;50.806;4.424;2022-11-30T03:59:05;107.20;;;18.25;;
23470;SDS011;11908;50.806;4.424;2022-11-30T04:01:30;162.90;;;18.33;;
23470;SDS011;11908;50.806;4.424;2022-11-30T04:03:56;53.72;;;18.42;;
23470;SDS011;11908;50.806;4.424;2022-11-30T04:06:22;59.90;;;18.63;;
23470;SDS011;11908;50.806;4.424;2022-11-30T04:08:48;47.35;;;18.50;;
23470;SDS011;11908;50.806;4.424;2022-11-30T04:11:14;100.93;;;17.90;;
23470;SDS011;11908;50.806;4.424;2022-11-30T04:13:40;77.93;;;17.23;;
23470;SDS011;11908;50.806;4.424;2022-11-30T04:16:07;82.72;;;16.77;;
23470;SDS011;11908;50.806;4.424;2022-11-30T04:18:33;149.00;;;19.98;;
23470;SDS011;11908;50.806;4.424;2022-11-30T04:21:00;70.97;;;21.35;;
23470;SDS011;11908;50.806;4.424;2022-11-30T04:23:30;83.13;;;23.48;;
23470;SDS011;11908;50.806;4.424;2022-11-30T04:25:57;116.15;;;30.60;;
23470;SDS011;11908;50.806;4.424;2022-11-30T04:28:22;94.18;;;28.60;;
23470;SDS011;11908;50.806;4.424;2022-11-30T04:30:48;124.70;;;31.23;;
23470;SDS011;11908;50.806;4.424;2022-11-30T04:33:14;90.15;;;29.65;;
23470;SDS011;11908;50.806;4.424;2022-11-30T04:35:50;124.05;;;33.38;;
23470;SDS011;11908;50.806;4.424;2022-11-30T04:38:19;116.78;;;34.08;;
23470;SDS011;11908;50.806;4.424;2022-11-30T04:40:45;155.90;;;33.53;;
23470;SDS011;11908;50.806;4.424;2022-11-30T04:43:11;136.38;;;32.55;;
23470;SDS011;11908;50.806;4.424;2022-11-30T04:45:37;108.85;;;33.33;;
23470;SDS011;11908;50.806;4.424;2022-11-30T04:48:03;101.15;;;29.27;;
23470;SDS011;11908;50.806;4.424;2022-11-30T04:50:29;86.68;;;30.48;;
23470;SDS011;11908;50.806;4.424;2022-11-30T04:52:55;77.97;;;27.45;;
23470;SDS011;11908;50.806;4.424;2022-11-30T04:55:21;91.85;;;27.17;;
23470;SDS011;11908;50.806;4.424;2022-11-30T04:57:47;114.72;;;25.13;;
23470;SDS011;11908;50.806;4.424;2022-11-30T05:00:14;134.45;;;24.95;;
23470;SDS011;11908;50.806;4.424;2022-11-30T05:02:41;147.10;;;23.98;;
23470;SDS011;11908;50.806;4.424;2022-11-30T05:05:07;69.13;;;23.50;;
23470;SDS011;11908;50.806;4.424;2022-11-30T05:07:33;136.95;;;25.58;;
23470;SDS011;11908;50.806;4.424;2022-11-30T05:09:59;82.20;;;25.35;;
23470;SDS011;11908;50.806;4.424;2022-11-30T05:12:24;91.93;;;24.55;;
23470;SDS011;11908;50.806;4.424;2022-11-30T05:14:50;90.43;;;23.13;;
23470;SDS011;11908;50.806;4.424;2022-11-30T05:17:16;164.13;;;25.73;;
23470;SDS011;11908;50.806;4.424;2022-11-30T05:19:41;65.95;;;21.80;;
23470;SDS011;11908;50.806;4.424;2022-11-30T05:22:07;97.05;;;24.30;;
23470;SDS011;11908;50.806;4.424;2022-11-30T05:24:33;98.25;;;23.08;;
23470;SDS011;11908;50.806;4.424;2022-11-30T05:26:58;87.47;;;22.83;;
23470;SDS011;11908;50.806;4.424;2022-11-30T05:29:24;61.55;;;22.10;;
23470;SDS011;11908;50.806;4.424;2022-11-30T05:31:50;68.55;;;24.50;;
23470;SDS011;11908;50.806;4.424;2022-11-30T05:34:15;85.20;;;23.33;;
23470;SDS011;11908;50.806;4.424;2022-11-30T05:36:41;141.68;;;25.15;;
23470;SDS011;11908;50.806;4.424;2022-11-30T05:39:07;121.55;;;26.05;;
23470;SDS011;11908;50.806;4.424;2022-11-30T05:41:32;74.03;;;25.27;;
23470;SDS011;11908;50.806;4.424;2022-11-30T05:43:58;103.07;;;27.52;;
23470;SDS011;11908;50.806;4.424;2022-11-30T05:46:24;82.65;;;26.73;;
23470;SDS011;11908;50.806;4.424;2022-11-30T05:48:49;59.80;;;22.75;;
23470;SDS011;11908;50.806;4.424;2022-11-30T05:51:16;94.75;;;25.33;;
23470;SDS011;11908;50.806;4.424;2022-11-30T05:53:43;268.60;;;30.70;;
23470;SDS011;11908;50.806;4.424;2022-11-30T05:56:11;114.03;;;26.77;;
23470;SDS011;11908;50.806;4.424;2022-11-30T05:58:38;75.80;;;23.70;;
23470;SDS011;11908;50.806;4.424;2022-11-30T06:01:05;68.10;;;24.55;;
23470;SDS011;11908;50.806;4.424;2022-11-30T06:03:31;103.22;;;27.25;;
23470;SDS011;11908;50.806;4.424;2022-11-30T06:05:58;78.07;;;26.35;;
23470;SDS011;11908;50.806;4.424;2022-11-30T06:08:25;78.25;;;25.10;;
23470;SDS011;11908;50.806;4.424;2022-11-30T06:10:52;76.38;;;25.83;;
23470;SDS011;11908;50.806;4.424;2022-11-30T06:13:18;74.28;;;28.20;;
23470;SDS011;11908;50.806;4.424;2022-11-30T06:15:44;69.13;;;27.10;;
23470;SDS011;11908;50.806;4.424;2022-11-30T06:18:10;71.47;;;28.17;;
23470;SDS011;11908;50.806;4.424;2022-11-30T06:20:37;75.30;;;27.50;;
23470;SDS011;11908;50.806;4.424;2022-11-30T06:23:02;69.13;;;27.85;;
23470;SDS011;11908;50.806;4.424;2022-11-30T06:25:28;71.50;;;27.15;;
23470;SDS011;11908;50.806;4.424;2022-11-30T06:27:54;60.58;;;26.95;;
23470;SDS011;11908;50.806;4.424;2022-11-30T06:30:19;61.50;;;26.85;;
23470;SDS011;11908;50.806;4.424;2022-11-30T06:32:46;52.55;;;24.25;;
23470;SDS011;11908;50.806;4.424;2022-11-30T06:35:12;52.55;;;23.38;;
23470;SDS011;11908;50.806;4.424;2022-11-30T06:37:38;53.00;;;25.45;;
23470;SDS011;11908;50.806;4.424;2022-11-30T06:40:04;48.92;;;22.33;;
23470;SDS011;11908;50.806;4.424;2022-11-30T06:42:30;48.53;;;24.08;;
23470;SDS011;11908;50.806;4.424;2022-11-30T06:44:57;52.25;;;24.60;;
23470;SDS011;11908;50.806;4.424;2022-11-30T06:47:23;59.17;;;26.05;;
23470;SDS011;11908;50.806;4.424;2022-11-30T06:49:48;53.88;;;25.92;;
23470;SDS011;11908;50.806;4.424;2022-11-30T06:52:14;56.10;;;25.38;;
23470;SDS011;11908;50.806;4.424;2022-11-30T06:54:40;59.40;;;25.88;;
23470;SDS011;11908;50.806;4.424;2022-11-30T06:57:06;59.53;;;24.27;;
23470;SDS011;11908;50.806;4.424;2022-11-30T06:59:31;57.42;;;26.38;;
23470;SDS011;11908;50.806;4.424;2022-11-30T07:01:57;57.13;;;27.17;;
23470;SDS011;11908;50.806;4.424;2022-11-30T07:04:23;64.35;;;25.75;;
23470;SDS011;11908;50.806;4.424;2022-11-30T07:06:49;60.00;;;26.70;;
23470;SDS011;11908;50.806;4.424;2022-11-30T07:09:18;73.15;;;28.73;;
23470;SDS011;11908;50.806;4.424;2022-11-30T07:11:43;53.88;;;27.95;;
23470;SDS011;11908;50.806;4.424;2022-11-30T07:14:09;66.85;;;29.48;;
23470;SDS011;11908;50.806;4.424;2022-11-30T07:16:34;70.57;;;29.13;;
23470;SDS011;11908;50.806;4.424;2022-11-30T07:19:00;65.18;;;26.55;;
23470;SDS011;11908;50.806;4.424;2022-11-30T07:21:26;63.13;;;28.00;;
23470;SDS011;11908;50.806;4.424;2022-11-30T07:23:51;67.47;;;27.55;;
23470;SDS011;11908;50.806;4.424;2022-11-30T07:26:35;71.43;;;29.13;;
23470;SDS011;11908;50.806;4.424;2022-11-30T07:29:01;65.50;;;28.42;;
23470;SDS011;11908;50.806;4.424;2022-11-30T07:31:30;60.85;;;28.38;;
23470;SDS011;11908;50.806;4.424;2022-11-30T07:34:02;71.25;;;28.40;;
23470;SDS011;11908;50.806;4.424;2022-11-30T07:36:30;67.65;;;28.58;;
23470;SDS011;11908;50.806;4.424;2022-11-30T07:38:56;69.35;;;28.15;;
23470;SDS011;11908;50.806;4.424;2022-11-30T07:41:22;65.93;;;29.77;;
23470;SDS011;11908;50.806;4.424;2022-11-30T07:43:48;69.72;;;30.23;;
23470;SDS011;11908;50.806;4.424;2022-11-30T07:46:14;63.83;;;29.27;;
23470;SDS011;11908;50.806;4.424;2022-11-30T07:48:41;70.28;;;30.55;;
23470;SDS011;11908;50.806;4.424;2022-11-30T07:51:11;71.65;;;31.00;;
23470;SDS011;11908;50.806;4.424;2022-11-30T07:53:42;65.32;;;29.23;;
23470;SDS011;11908;50.806;4.424;2022-11-30T07:56:08;70.40;;;31.67;;
23470;SDS011;11908;50.806;4.424;2022-11-30T07:58:39;72.65;;;30.50;;
23470;SDS011;11908;50.806;4.424;2022-11-30T08:01:10;67.80;;;31.02;;
23470;SDS011;11908;50.806;4.424;2022-11-30T08:03:44;66.00;;;29.15;;
23470;SDS011;11908;50.806;4.424;2022-11-30T08:06:10;67.82;;;29.20;;
23470;SDS011;11908;50.806;4.424;2022-11-30T08:08:39;57.15;;;28.77;;
23470;SDS011;11908;50.806;4.424;2022-11-30T08:11:07;59.70;;;28.33;;
23470;SDS011;11908;50.806;4.424;2022-11-30T08:13:34;68.47;;;30.23;;
23470;SDS011;11908;50.806;4.424;2022-11-30T08:16:06;74.43;;;30.27;;
23470;SDS011;11908;50.806;4.424;2022-11-30T08:18:37;69.47;;;31.35;;
23470;SDS011;11908;50.806;4.424;2022-11-30T08:21:03;63.83;;;28.25;;
23470;SDS011;11908;50.806;4.424;2022-11-30T08:23:31;61.17;;;27.60;;
23470;SDS011;11908;50.806;4.424;2022-11-30T08:26:04;60.90;;;26.10;;
23470;SDS011;11908;50.806;4.424;2022-11-30T08:28:32;58.70;;;27.15;;
23470;SDS011;11908;50.806;4.424;2022-11-30T08:31:05;57.00;;;25.98;;
23470;SDS011;11908;50.806;4.424;2022-11-30T08:33:33;58.25;;;27.00;;
23470;SDS011;11908;50.806;4.424;2022-11-30T08:36:12;63.47;;;29.23;;
23470;SDS011;11908;50.806;4.424;2022-11-30T08:38:40;57.03;;;26.40;;
23470;SDS011;11908;50.806;4.424;2022-11-30T08:41:06;47.15;;;24.67;;
23470;SDS011;11908;50.806;4.424;2022-11-30T08:43:33;48.90;;;24.35;;
23470;SDS011;11908;50.806;4.424;2022-11-30T08:46:00;48.78;;;23.45;;
23470;SDS011;11908;50.806;4.424;2022-11-30T08:48:28;45.38;;;24.00;;
23470;SDS011;11908;50.806;4.424;2022-11-30T08:50:57;50.83;;;24.65;;
23470;SDS011;11908;50.806;4.424;2022-11-30T08:53:24;49.33;;;24.73;;
23470;SDS011;11908;50.806;4.424;2022-11-30T08:55:53;54.78;;;26.83;;
23470;SDS011;11908;50.806;4.424;2022-11-30T08:58:28;61.85;;;26.30;;
23470;SDS011;11908;50.806;4.424;2022-11-30T09:01:09;52.83;;;25.33;;
23470;SDS011;11908;50.806;4.424;2022-11-30T09:03:37;54.08;;;25.13;;
23470;SDS011;11908;50.806;4.424;2022-11-30T09:06:08;51.85;;;24.08;;
23470;SDS011;11908;50.806;4.424;2022-11-30T09:08:38;59.78;;;26.58;;
23470;SDS011;11908;50.806;4.424;2022-11-30T09:13:44;53.75;;;25.50;;
23470;SDS011;11908;50.806;4.424;2022-11-30T09:16:10;62.35;;;28.55;;
23470;SDS011;11908;50.806;4.424;2022-11-30T09:18:36;63.70;;;28.10;;
23470;SDS011;11908;50.806;4.424;2022-11-30T09:21:03;56.28;;;26.83;;
23470;SDS011;11908;50.806;4.424;2022-11-30T09:23:32;49.63;;;25.23;;
23470;SDS011;11908;50.806;4.424;2022-11-30T09:25:58;51.53;;;25.08;;
23470;SDS011;11908;50.806;4.424;2022-11-30T09:28:25;49.78;;;22.23;;
23470;SDS011;11908;50.806;4.424;2022-11-30T09:30:52;46.05;;;22.27;;
23470;SDS011;11908;50.806;4.424;2022-11-30T09:33:18;44.92;;;22.23;;
23470;SDS011;11908;50.806;4.424;2022-11-30T09:35:44;45.65;;;23.17;;
23470;SDS011;11908;50.806;4.424;2022-11-30T09:38:18;41.90;;;22.17;;
23470;SDS011;11908;50.806;4.424;2022-11-30T09:40:44;40.17;;;21.20;;
23470;SDS011;11908;50.806;4.424;2022-11-30T09:46:17;39.80;;;21.55;;
23470;SDS011;11908;50.806;4.424;2022-11-30T09:49:02;37.05;;;21.40;;
23470;SDS011;11908;50.806;4.424;2022-11-30T09:54:05;39.38;;;21.40;;
23470;SDS011;11908;50.806;4.424;2022-11-30T09:56:37;35.42;;;20.35;;
23470;SDS011;11908;50.806;4.424;2022-11-30T09:59:19;40.80;;;22.42;;
23470;SDS011;11908;50.806;4.424;2022-11-30T10:01:48;36.70;;;21.90;;
23470;SDS011;11908;50.806;4.424;2022-11-30T10:04:24;42.00;;;22.20;;
23470;SDS011;11908;50.806;4.424;2022-11-30T10:06:58;39.92;;;23.00;;
23470;SDS011;11908;50.806;4.424;2022-11-30T10:09:45;43.95;;;23.30;;
23470;SDS011;11908;50.806;4.424;2022-11-30T10:12:23;50.13;;;23.73;;
23470;SDS011;11908;50.806;4.424;2022-11-30T10:17:55;41.45;;;22.20;;
23470;SDS011;11908;50.806;4.424;2022-11-30T10:23:11;39.85;;;22.52;;
23470;SDS011;11908;50.806;4.424;2022-11-30T10:25:54;38.58;;;22.15;;
23470;SDS011;11908;50.806;4.424;2022-11-30T10:31:17;41.95;;;22.27;;
23470;SDS011;11908;50.806;4.424;2022-11-30T10:33:48;37.22;;;20.90;;
23470;SDS011;11908;50.806;4.424;2022-11-30T10:38:43;37.55;;;22.27;;
23470;SDS011;11908;50.806;4.424;2022-11-30T10:44:03;41.38;;;23.40;;
23470;SDS011;11908;50.806;4.424;2022-11-30T10:46:37;45.67;;;23.60;;
23470;SDS011;11908;50.806;4.424;2022-11-30T10:49:10;34.65;;;21.63;;
23470;SDS011;11908;50.806;4.424;2022-11-30T10:51:40;36.22;;;19.85;;
23470;SDS011;11908;50.806;4.424;2022-11-30T10:54:13;35.25;;;20.02;;
23470;SDS011;11908;50.806;4.424;2022-11-30T10:56:40;29.42;;;19.38;;
23470;SDS011;11908;50.806;4.424;2022-11-30T10:59:10;30.27;;;19.60;;
23470;SDS011;11908;50.806;4.424;2022-11-30T11:01:43;30.88;;;19.83;;
23470;SDS011;11908;50.806;4.424;2022-11-30T11:10:13;32.03;;;20.60;;
23470;SDS011;11908;50.806;4.424;2022-11-30T11:14:49;34.13;;;21.52;;
23470;SDS011;11908;50.806;4.424;2022-11-30T11:17:42;40.17;;;21.63;;
23470;SDS011;11908;50.806;4.424;2022-11-30T11:22:54;38.72;;;23.13;;
23470;SDS011;11908;50.806;4.424;2022-11-30T11:25:20;36.33;;;21.60;;
23470;SDS011;11908;50.806;4.424;2022-11-30T11:27:52;36.20;;;21.73;;
23470;SDS011;11908;50.806;4.424;2022-11-30T11:30:29;34.70;;;21.77;;
23470;SDS011;11908;50.806;4.424;2022-11-30T11:33:17;40.28;;;23.20;;
23470;SDS011;11908;50.806;4.424;2022-11-30T11:35:50;38.90;;;22.35;;
23470;SDS011;11908;50.806;4.424;2022-11-30T11:41:04;37.40;;;21.65;;
23470;SDS011;11908;50.806;4.424;2022-11-30T11:43:39;36.95;;;21.60;;
23470;SDS011;11908;50.806;4.424;2022-11-30T11:46:25;42.72;;;24.52;;
23470;SDS011;11908;50.806;4.424;2022-11-30T11:51:30;40.42;;;24.35;;
23470;SDS011;11908;50.806;4.424;2022-11-30T11:56:28;43.90;;;23.20;;
23470;SDS011;11908;50.806;4.424;2022-11-30T12:06:54;43.22;;;24.15;;
23470;SDS011;11908;50.806;4.424;2022-11-30T12:09:24;39.60;;;23.08;;
23470;SDS011;11908;50.806;4.424;2022-11-30T12:11:54;44.28;;;24.23;;
23470;SDS011;11908;50.806;4.424;2022-11-30T12:14:20;41.75;;;23.30;;
23470;SDS011;11908;50.806;4.424;2022-11-30T12:19:45;43.50;;;24.15;;
23470;SDS011;11908;50.806;4.424;2022-11-30T12:25:23;43.03;;;25.27;;
23470;SDS011;11908;50.806;4.424;2022-11-30T12:33:29;44.92;;;24.90;;
23470;SDS011;11908;50.806;4.424;2022-11-30T12:39:23;42.83;;;24.67;;
23470;SDS011;11908;50.806;4.424;2022-11-30T12:41:59;39.63;;;23.98;;
23470;SDS011;11908;50.806;4.424;2022-11-30T12:47:20;43.03;;;25.10;;
23470;SDS011;11908;50.806;4.424;2022-11-30T12:55:57;46.20;;;26.50;;
23470;SDS011;11908;50.806;4.424;2022-11-30T12:58:39;40.88;;;25.50;;
23470;SDS011;11908;50.806;4.424;2022-11-30T13:07:00;45.75;;;25.65;;
23470;SDS011;11908;50.806;4.424;2022-11-30T13:09:52;48.75;;;25.92;;
23470;SDS011;11908;50.806;4.424;2022-11-30T13:12:26;48.13;;;25.70;;
23470;SDS011;11908;50.806;4.424;2022-11-30T13:15:01;47.35;;;27.10;;
23470;SDS011;11908;50.806;4.424;2022-11-30T13:17:34;42.78;;;26.52;;
23470;SDS011;11908;50.806;4.424;2022-11-30T13:25:43;46.60;;;26.83;;
23470;SDS011;11908;50.806;4.424;2022-11-30T13:30:52;47.97;;;26.45;;
23470;SDS011;11908;50.806;4.424;2022-11-30T13:33:48;50.47;;;28.50;;
23470;SDS011;11908;50.806;4.424;2022-11-30T13:41:43;54.45;;;30.83;;
23470;SDS011;11908;50.806;4.424;2022-11-30T13:46:59;54.00;;;30.40;;
23470;SDS011;11908;50.806;4.424;2022-11-30T13:51:55;55.92;;;30.88;;
23470;SDS011;11908;50.806;4.424;2022-11-30T13:57:15;46.60;;;26.95;;
23470;SDS011;11908;50.806;4.424;2022-11-30T13:59:45;48.50;;;28.50;;
23470;SDS011;11908;50.806;4.424;2022-11-30T14:05:13;47.15;;;27.13;;
23470;SDS011;11908;50.806;4.424;2022-11-30T14:10:33;43.00;;;26.60;;
23470;SDS011;11908;50.806;4.424;2022-11-30T14:26:15;49.88;;;28.13;;
23470;SDS011;11908;50.806;4.424;2022-11-30T14:28:52;52.13;;;28.40;;
23470;SDS011;11908;50.806;4.424;2022-11-30T14:31:23;50.45;;;28.20;;
23470;SDS011;11908;50.806;4.424;2022-11-30T14:33:57;46.35;;;27.20;;
23470;SDS011;11908;50.806;4.424;2022-11-30T14:36:33;51.85;;;29.90;;
23470;SDS011;11908;50.806;4.424;2022-11-30T14:39:02;45.95;;;28.50;;
23470;SDS011;11908;50.806;4.424;2022-11-30T14:41:28;44.22;;;27.02;;
23470;SDS011;11908;50.806;4.424;2022-11-30T14:46:24;50.85;;;28.23;;
23470;SDS011;11908;50.806;4.424;2022-11-30T14:51:45;45.38;;;27.98;;
23470;SDS011;11908;50.806;4.424;2022-11-30T14:59:58;48.75;;;27.48;;
23470;SDS011;11908;50.806;4.424;2022-11-30T15:05:06;54.13;;;30.20;;
23470;SDS011;11908;50.806;4.424;2022-11-30T15:07:36;54.92;;;29.38;;
23470;SDS011;11908;50.806;4.424;2022-11-30T15:10:07;47.65;;;29.42;;
23470;SDS011;11908;50.806;4.424;2022-11-30T15:12:35;53.67;;;30.88;;
23470;SDS011;11908;50.806;4.424;2022-11-30T15:15:13;52.33;;;31.02;;
23470;SDS011;11908;50.806;4.424;2022-11-30T15:17:47;52.10;;;30.33;;
23470;SDS011;11908;50.806;4.424;2022-11-30T15:20:17;49.05;;;29.33;;
23470;SDS011;11908;50.806;4.424;2022-11-30T15:23:03;55.03;;;30.92;;
23470;SDS011;11908;50.806;4.424;2022-11-30T15:25:33;52.47;;;29.15;;
23470;SDS011;11908;50.806;4.424;2022-11-30T15:28:03;50.15;;;29.42;;
23470;SDS011;11908;50.806;4.424;2022-11-30T15:30:31;51.03;;;29.50;;
23470;SDS011;11908;50.806;4.424;2022-11-30T15:32:59;52.78;;;30.25;;
23470;SDS011;11908;50.806;4.424;2022-11-30T15:35:25;54.45;;;29.83;;
23470;SDS011;11908;50.806;4.424;2022-11-30T15:37:53;51.50;;;29.02;;
23470;SDS011;11908;50.806;4.424;2022-11-30T15:40:37;51.65;;;29.15;;
23470;SDS011;11908;50.806;4.424;2022-11-30T15:43:02;48.58;;;28.45;;
23470;SDS011;11908;50.806;4.424;2022-11-30T15:45:29;44.92;;;26.58;;
23470;SDS011;11908;50.806;4.424;2022-11-30T15:48:00;55.78;;;28.90;;
23470;SDS011;11908;50.806;4.424;2022-11-30T15:52:53;49.92;;;27.65;;
23470;SDS011;11908;50.806;4.424;2022-11-30T15:58:47;59.72;;;31.10;;
23470;SDS011;11908;50.806;4.424;2022-11-30T16:06:43;56.55;;;30.85;;
23470;SDS011;11908;50.806;4.424;2022-11-30T16:09:17;57.25;;;31.55;;
23470;SDS011;11908;50.806;4.424;2022-11-30T16:11:49;62.47;;;32.65;;
23470;SDS011;11908;50.806;4.424;2022-11-30T16:14:18;58.45;;;32.55;;
23470;SDS011;11908;50.806;4.424;2022-11-30T16:16:44;63.47;;;31.75;;
23470;SDS011;11908;50.806;4.424;2022-11-30T16:19:10;65.57;;;34.97;;
23470;SDS011;11908;50.806;4.424;2022-11-30T16:21:36;60.55;;;33.55;;
23470;SDS011;11908;50.806;4.424;2022-11-30T16:24:02;66.55;;;34.85;;
23470;SDS011;11908;50.806;4.424;2022-11-30T16:26:28;64.20;;;32.13;;
23470;SDS011;11908;50.806;4.424;2022-11-30T16:28:53;60.30;;;32.13;;
23470;SDS011;11908;50.806;4.424;2022-11-30T16:31:21;64.85;;;32.88;;
23470;SDS011;11908;50.806;4.424;2022-11-30T16:33:47;63.47;;;33.60;;
23470;SDS011;11908;50.806;4.424;2022-11-30T16:36:15;61.55;;;32.72;;
23470;SDS011;11908;50.806;4.424;2022-11-30T16:38:42;66.53;;;34.20;;
23470;SDS011;11908;50.806;4.424;2022-11-30T16:43:41;70.95;;;39.70;;
23470;SDS011;11908;50.806;4.424;2022-11-30T16:46:17;72.00;;;35.72;;
23470;SDS011;11908;50.806;4.424;2022-11-30T16:48:44;66.35;;;35.58;;
23470;SDS011;11908;50.806;4.424;2022-11-30T16:51:15;66.70;;;34.55;;
23470;SDS011;11908;50.806;4.424;2022-11-30T16:53:49;74.00;;;34.55;;
23470;SDS011;11908;50.806;4.424;2022-11-30T16:56:15;62.03;;;34.88;;
23470;SDS011;11908;50.806;4.424;2022-11-30T16:58:41;67.45;;;35.70;;
23470;SDS011;11908;50.806;4.424;2022-11-30T17:04:05;71.07;;;36.10;;
23470;SDS011;11908;50.806;4.424;2022-11-30T17:06:40;75.43;;;38.78;;
23470;SDS011;11908;50.806;4.424;2022-11-30T17:09:12;70.65;;;37.78;;
23470;SDS011;11908;50.806;4.424;2022-11-30T17:11:39;71.95;;;37.40;;